Time;durP1;ratioP1;P1;durP2;ratioP2;P2;SDS_P1;SDS_P2;PMS_P1;PMS_P2;Temp;Humidity;BMP_temperature;BMP_pressure;BME280_temperature;BME280_humidity;BME280_pressure;Samples;Min_cycle;Max_cycle;Signal;HPM_P1;HPM_P2
2022/08/30 00:02:11;;;;;;;;;;;;;;;27.31;49.58;99728.34;4470641;32;32930;-62
2022/08/30 00:04:39;;;;;;;;;;;;;;;27.31;49.67;99724.78;4472619;32;33405;-62
2022/08/30 00:07:06;;;;;;;;;;;;;;;27.30;49.65;99723.09;4471210;32;33755;-62
2022/08/30 00:09:34;;;;;;;;;;;;;;;27.36;49.39;99724.94;4473600;32;35536;-62
2022/08/30 00:12:03;;;;;;;;;;;;;;;27.33;49.50;99725.41;4472121;32;33963;-62
2022/08/30 00:14:30;;;;;;;;;;;;;;;27.29;49.42;99726.91;4476450;32;33637;-62
2022/08/30 00:16:57;;;;;;;;;;;;;;;27.33;49.24;99725.41;4480768;32;33916;-62
2022/08/30 00:19:25;;;;;;;;;;;;;;;27.29;49.26;99726.91;4475725;32;32868;-62
2022/08/30 00:21:52;;;;;;;;;;;;;;;27.17;49.34;99730.38;4472646;32;33827;-62
2022/08/30 00:24:19;;;;;;;;;;;;;;;27.09;49.41;99722.38;4481270;32;33230;-62
2022/08/30 00:26:47;;;;;;;;;;;;;;;27.04;49.55;99726.87;4480009;32;35204;-62
2022/08/30 00:29:14;;;;;;;;;;;;;;;26.95;49.75;99727.13;4481370;32;35529;-62
2022/08/30 00:31:41;;;;;;;;;;;;;;;26.92;49.85;99723.97;4474969;32;32700;-62
2022/08/30 00:34:09;;;;;;;;;;;;;;;26.88;50.11;99729.06;4477363;32;31992;-62
2022/08/30 00:36:36;;;;;;;;;;;;;;;26.79;50.30;99724.91;4480981;32;35149;-62
2022/08/30 00:39:05;;;;;;;;;;;;;;;26.68;50.45;99723.72;4474835;32;35309;-62
2022/08/30 00:41:33;;;;;;;;;;;;;;;26.71;50.37;99728.78;4475021;32;34173;-63
2022/08/30 00:44:00;;;;;;;;;;;;;;;26.58;50.88;99733.47;4478438;32;33267;-62
2022/08/30 00:46:28;;;;;;;;;;;;;;;26.53;51.00;99727.81;4484735;32;33969;-62
2022/08/30 00:48:55;;;;;;;;;;;;;;;26.41;51.42;99724.88;4474543;32;34170;-62
2022/08/30 00:51:25;;;;;;;;;;;;;;;26.40;51.39;99729.53;4484090;32;35194;-62
2022/08/30 00:53:53;;;;;;;;;;;;;;;26.42;51.32;99732.91;4478299;32;33124;-62
2022/08/30 00:56:22;;;;;;;;;;;;;;;26.38;51.40;99725.31;4477336;32;33634;-62
2022/08/30 00:58:51;;;;;;;;;;;;;;;26.39;51.25;99736.09;4476116;32;35473;-62
2022/08/30 01:01:18;;;;;;;;;;;;;;;26.37;51.32;99729.13;4469086;32;34491;-62
2022/08/30 01:03:46;;;;;;;;;;;;;;;26.34;51.31;99729.56;4478689;32;33535;-62
2022/08/30 01:06:14;;;;;;;;;;;;;;;26.29;51.47;99721.13;4477933;32;33996;-62
2022/08/30 01:08:42;;;;;;;;;;;;;;;26.31;51.43;99727.25;4472433;32;32920;-62
2022/08/30 01:11:11;;;;;;;;;;;;;;;26.27;51.51;99726.84;4476502;32;32879;-62
2022/08/30 01:13:39;;;;;;;;;;;;;;;26.27;51.44;99721.34;4463133;32;32040;-62
2022/08/30 01:16:06;;;;;;;;;;;;;;;26.24;51.58;99725.38;4479553;32;34241;-62
2022/08/30 01:18:36;;;;;;;;;;;;;;;26.25;51.60;99718.81;4477813;32;34272;-61
2022/08/30 01:21:14;;;;;;;;;;;;;;;26.26;51.72;99719.69;4474668;32;34014;-62
2022/08/30 01:23:43;;;;;;;;;;;;;;;26.27;51.71;99723.25;4477457;32;33263;-61
2022/08/30 01:26:11;;;;;;;;;;;;;;;26.30;51.64;99720.09;4480583;32;34910;-61
2022/08/30 01:28:42;;;;;;;;;;;;;;;26.30;51.72;99722.84;4480999;32;34505;-61
2022/08/30 01:31:10;;;;;;;;;;;;;;;26.29;51.71;99716.47;4481978;32;34100;-62
2022/08/30 01:33:37;;;;;;;;;;;;;;;26.25;51.87;99718.81;4478325;32;33349;-61
2022/08/30 01:36:06;;;;;;;;;;;;;;;26.28;51.71;99717.53;4482159;32;32745;-62
2022/08/30 01:38:34;;;;;;;;;;;;;;;26.26;51.62;99714.19;4481591;32;34028;-62
2022/08/30 01:41:28;;;;;;;;;;;;;;;26.18;51.74;99715.25;4480139;32;34915;-62
2022/08/30 01:43:57;;;;;;;;;;;;;;;26.20;51.63;99715.91;4476700;32;33077;-62
2022/08/30 01:46:27;;;;;;;;;;;;;;;26.09;51.94;99719.31;4483280;32;34228;-63
2022/08/30 01:48:55;;;;;;;;;;;;;;;26.15;51.81;99720.34;4482664;32;33628;-63
2022/08/30 01:51:26;;;;;;;;;;;;;;;26.11;51.83;99711.72;4484528;32;34217;-62
2022/08/30 01:53:53;;;;;;;;;;;;;;;26.10;51.74;99712.78;4482081;32;34472;-62
2022/08/30 01:56:22;;;;;;;;;;;;;;;26.04;51.82;99701.84;4482682;32;34166;-63
2022/08/30 01:58:50;;;;;;;;;;;;;;;26.04;51.68;99713.66;4481418;32;34306;-62
2022/08/30 02:01:18;;;;;;;;;;;;;;;26.04;51.71;99707.31;4474880;32;33670;-63
2022/08/30 02:03:47;;;;;;;;;;;;;;;25.98;51.84;99714.50;4477880;32;33301;-63
2022/08/30 02:06:17;;;;;;;;;;;;;;;26.01;51.74;99705.84;4482762;32;34280;-63
2022/08/30 02:08:44;;;;;;;;;;;;;;;25.98;51.82;99703.53;4482171;32;34143;-63
2022/08/30 02:11:12;;;;;;;;;;;;;;;25.98;51.72;99703.53;4476282;32;33340;-62
2022/08/30 02:13:40;;;;;;;;;;;;;;;25.97;51.74;99702.69;4482375;32;33242;-63
2022/08/30 02:16:08;;;;;;;;;;;;;;;25.96;51.73;99703.75;4483701;32;33944;-63
2022/08/30 02:18:36;;;;;;;;;;;;;;;25.85;52.08;99703.56;4483221;32;34062;-63
2022/08/30 02:21:03;;;;;;;;;;;;;;;25.85;51.99;99704.41;4484505;32;35253;-62
2022/08/30 02:23:31;;;;;;;;;;;;;;;25.88;51.82;99706.72;4481780;32;33215;-62
2022/08/30 02:25:58;;;;;;;;;;;;;;;25.83;51.93;99702.94;4483315;32;35392;-62
2022/08/30 02:28:25;;;;;;;;;;;;;;;25.77;52.08;99705.44;4482752;32;32876;-62
2022/08/30 02:30:53;;;;;;;;;;;;;;;25.79;51.88;99703.34;4483966;32;34602;-63
2022/08/30 02:33:21;;;;;;;;;;;;;;;25.73;52.00;99703.34;4483530;32;32021;-63
2022/08/30 02:35:48;;;;;;;;;;;;;;;25.71;52.06;99710.94;4483951;32;34144;-63
2022/08/30 02:38:15;;;;;;;;;;;;;;;25.64;52.16;99707.38;4482535;32;35261;-63
2022/08/30 02:40:46;;;;;;;;;;;;;;;25.69;51.95;99702.09;4483254;32;34393;-64
2022/08/30 02:43:14;;;;;;;;;;;;;;;25.67;51.97;99712.44;4482380;32;34508;-62
2022/08/30 02:45:41;;;;;;;;;;;;;;;25.59;52.24;99708.03;4483906;32;35228;-62
2022/08/30 02:48:09;;;;;;;;;;;;;;;25.59;52.20;99713.50;4481522;32;34218;-63
2022/08/30 02:50:40;;;;;;;;;;;;;;;25.63;52.17;99714.75;4481957;32;34458;-62
2022/08/30 02:53:07;;;;;;;;;;;;;;;25.59;52.25;99705.28;4481344;32;32227;-63
2022/08/30 02:55:38;;;;;;;;;;;;;;;25.52;52.39;99705.31;4483326;32;33286;-63
2022/08/30 02:58:05;;;;;;;;;;;;;;;25.56;52.10;99703.81;4482077;32;33194;-63
2022/08/30 03:00:33;;;;;;;;;;;;;;;25.56;52.14;99705.72;4484554;32;32902;-63
2022/08/30 03:03:02;;;;;;;;;;;;;;;25.54;52.26;99708.66;4481582;32;34211;-61
2022/08/30 03:05:30;;;;;;;;;;;;;;;25.51;52.18;99703.59;4484183;32;34429;-61
2022/08/30 03:07:58;;;;;;;;;;;;;;;25.39;52.30;99704.44;4483746;32;34189;-61
2022/08/30 03:10:26;;;;;;;;;;;;;;;25.47;52.08;99706.97;4481710;32;35076;-61
2022/08/30 03:12:54;;;;;;;;;;;;;;;25.45;51.99;99709.91;4480519;31;33526;-63
2022/08/30 03:15:24;;;;;;;;;;;;;;;25.42;51.96;99707.59;4477541;31;34441;-62
2022/08/30 03:17:52;;;;;;;;;;;;;;;25.41;51.98;99705.94;4474819;32;34301;-62
2022/08/30 03:20:20;;;;;;;;;;;;;;;25.43;51.86;99711.22;4477257;31;33766;-61
2022/08/30 03:22:47;;;;;;;;;;;;;;;25.42;51.92;99717.72;4474353;32;33350;-61
2022/08/30 03:25:15;;;;;;;;;;;;;;;25.41;51.92;99722.38;4480521;31;34248;-62
2022/08/30 03:27:42;;;;;;;;;;;;;;;25.38;52.00;99716.47;4476750;32;34154;-62
2022/08/30 03:30:10;;;;;;;;;;;;;;;25.31;52.19;99720.06;4478510;32;32871;-62
2022/08/30 03:32:38;;;;;;;;;;;;;;;25.23;52.48;99724.91;4479855;31;33391;-62
2022/08/30 03:35:06;;;;;;;;;;;;;;;25.02;52.96;99725.91;4475633;32;32621;-62
2022/08/30 03:37:34;;;;;;;;;;;;;;;25.12;52.37;99730.97;4473934;31;35363;-62
2022/08/30 03:40:03;;;;;;;;;;;;;;;25.08;52.46;99730.56;4472566;32;35146;-61
2022/08/30 03:42:32;;;;;;;;;;;;;;;25.12;52.48;99731.84;4477124;31;33116;-61
2022/08/30 03:45:01;;;;;;;;;;;;;;;25.04;52.66;99737.47;4477451;32;34170;-62
2022/08/30 03:47:28;;;;;;;;;;;;;;;25.15;52.25;99734.16;4469410;32;34434;-62
2022/08/30 03:49:56;;;;;;;;;;;;;;;25.17;52.30;99740.28;4478063;32;32712;-62
2022/08/30 03:52:23;;;;;;;;;;;;;;;25.09;52.57;99737.72;4480400;32;33571;-61
2022/08/30 03:54:50;;;;;;;;;;;;;;;24.96;52.95;99745.91;4478695;31;34104;-62
2022/08/30 03:57:18;;;;;;;;;;;;;;;24.76;53.50;99741.25;4477883;32;34298;-62
2022/08/30 03:59:46;;;;;;;;;;;;;;;24.96;53.00;99748.66;4473194;31;35155;-62
2022/08/30 04:02:13;;;;;;;;;;;;;;;25.03;52.87;99738.53;4475200;32;33015;-62
2022/08/30 04:04:41;;;;;;;;;;;;;;;25.07;52.77;99740.69;4474606;31;34051;-62
2022/08/30 04:07:08;;;;;;;;;;;;;;;24.67;53.82;99745.22;4481563;32;33937;-62
2022/08/30 04:09:36;;;;;;;;;;;;;;;24.83;53.35;99749.47;4477001;31;33884;-62
2022/08/30 04:12:03;;;;;;;;;;;;;;;24.90;53.20;99744.00;4476597;32;33536;-62
2022/08/30 04:14:31;;;;;;;;;;;;;;;24.94;53.15;99748.00;4476485;31;33946;-62
2022/08/30 04:16:58;;;;;;;;;;;;;;;24.96;53.07;99760.44;4478893;32;32910;-62
2022/08/30 04:19:25;;;;;;;;;;;;;;;25.03;52.84;99761.28;4472852;32;32983;-62
2022/08/30 04:21:53;;;;;;;;;;;;;;;24.95;53.28;99766.13;4470020;32;32944;-62
2022/08/30 04:24:20;;;;;;;;;;;;;;;24.87;53.61;99770.72;4477472;32;35285;-61
2022/08/30 04:26:48;;;;;;;;;;;;;;;25.00;53.22;99774.56;4474274;32;34238;-62
2022/08/30 04:29:16;;;;;;;;;;;;;;;25.18;52.73;99780.31;4476563;32;35252;-62
2022/08/30 04:31:44;;;;;;;;;;;;;;;25.15;52.97;99786.22;4472883;31;34510;-62
2022/08/30 04:34:12;;;;;;;;;;;;;;;25.16;52.83;99793.38;4473404;32;33748;-62
2022/08/30 04:36:39;;;;;;;;;;;;;;;25.21;52.72;99790.84;4475276;31;35503;-62
2022/08/30 04:39:07;;;;;;;;;;;;;;;25.15;52.74;99794.41;4477096;32;34887;-62
2022/08/30 04:41:35;;;;;;;;;;;;;;;25.21;52.81;99800.97;4478836;31;32602;-62
2022/08/30 04:44:02;;;;;;;;;;;;;;;25.23;52.90;99804.31;4477854;32;33954;-62
2022/08/30 04:46:30;;;;;;;;;;;;;;;25.12;52.86;99805.78;4479101;32;33195;-62
2022/08/30 04:48:57;;;;;;;;;;;;;;;25.12;53.13;99804.91;4479307;31;32943;-63
2022/08/30 04:51:24;;;;;;;;;;;;;;;25.14;52.78;99806.44;4475969;32;31730;-62
2022/08/30 04:53:52;;;;;;;;;;;;;;;25.33;52.53;99807.53;4478543;31;34136;-61
2022/08/30 04:56:23;;;;;;;;;;;;;;;25.41;52.44;99815.53;4477639;32;34386;-61
2022/08/30 04:58:52;;;;;;;;;;;;;;;25.43;52.25;99818.91;4479598;31;35140;-62
2022/08/30 05:01:21;;;;;;;;;;;;;;;25.56;52.02;99810.69;4477056;32;34172;-62
2022/08/30 05:03:51;;;;;;;;;;;;;;;25.62;52.11;99813.62;4474635;32;33157;-62
2022/08/30 05:06:18;;;;;;;;;;;;;;;25.74;51.98;99814.69;4467609;32;33842;-62
2022/08/30 05:08:46;;;;;;;;;;;;;;;25.79;52.07;99817.63;4479023;31;34038;-62
2022/08/30 05:11:15;;;;;;;;;;;;;;;25.86;52.23;99823.16;4475917;32;33828;-62
2022/08/30 05:13:42;;;;;;;;;;;;;;;25.66;52.64;99821.22;4474776;32;32620;-62
2022/08/30 05:16:16;;;;;;;;;;;;;;;25.86;52.02;99832.22;4475691;32;35444;-62
2022/08/30 05:18:44;;;;;;;;;;;;;;;25.60;52.54;99824.81;4479489;32;33988;-62
2022/08/30 05:21:13;;;;;;;;;;;;;;;25.56;52.64;99829.88;4479263;31;31874;-64
2022/08/30 05:23:41;;;;;;;;;;;;;;;26.00;51.44;99830.28;4479046;32;34241;-62
2022/08/30 05:26:10;;;;;;;;;;;;;;;26.19;51.11;99828.56;4478159;31;33074;-62
2022/08/30 05:28:38;;;;;;;;;;;;;;;25.91;51.84;99823.38;4476961;32;34920;-62
2022/08/30 05:31:20;;;;;;;;;;;;;;;26.18;51.05;99824.16;4475764;31;31802;-63
2022/08/30 05:33:48;;;;;;;;;;;;;;;26.28;50.80;99832.78;4469885;32;35056;-62
2022/08/30 05:36:16;;;;;;;;;;;;;;;26.38;50.56;99824.09;4472939;31;35483;-62
2022/08/30 05:38:43;;;;;;;;;;;;;;;26.48;50.66;99830.00;4475815;32;33567;-62
2022/08/30 05:41:11;;;;;;;;;;;;;;;26.56;50.46;99827.03;4480293;31;34261;-62
2022/08/30 05:43:38;;;;;;;;;;;;;;;26.54;50.30;99822.81;4474978;32;33938;-62
2022/08/30 05:46:07;;;;;;;;;;;;;;;26.62;49.11;99828.91;4479826;32;35262;-62
2022/08/30 05:48:35;;;;;;;;;;;;;;;26.72;49.24;99820.19;4471400;32;33648;-62
2022/08/30 05:51:07;;;;;;;;;;;;;;;27.02;49.24;99819.63;4477822;32;33509;-62
2022/08/30 05:53:34;;;;;;;;;;;;;;;27.07;48.98;99830.81;4473831;32;32508;-62
2022/08/30 05:56:03;;;;;;;;;;;;;;;27.15;48.62;99831.41;4478482;32;33413;-64
2022/08/30 05:58:31;;;;;;;;;;;;;;;27.16;48.08;99832.25;4475234;31;33957;-64
2022/08/30 06:00:58;;;;;;;;;;;;;;;27.16;47.12;99829.50;4477177;32;34299;-64
2022/08/30 06:03:26;;;;;;;;;;;;;;;27.08;46.80;99832.47;4475102;32;33676;-64
2022/08/30 06:05:54;;;;;;;;;;;;;;;26.99;46.86;99833.78;4480010;32;35040;-64
2022/08/30 06:08:21;;;;;;;;;;;;;;;27.06;47.00;99835.47;4474516;31;34448;-62
2022/08/30 06:10:49;;;;;;;;;;;;;;;27.09;47.13;99837.75;4472207;32;31835;-62
2022/08/30 06:13:16;;;;;;;;;;;;;;;27.16;46.81;99844.09;4476037;31;35248;-62
2022/08/30 06:15:44;;;;;;;;;;;;;;;27.23;47.08;99837.72;4474962;32;34309;-62
2022/08/30 06:18:12;;;;;;;;;;;;;;;27.28;46.60;99844.22;4473141;32;32146;-62
2022/08/30 06:20:40;;;;;;;;;;;;;;;27.37;46.39;99839.28;4467675;32;33059;-62
2022/08/30 06:23:08;;;;;;;;;;;;;;;27.46;46.27;99846.22;4473353;32;34132;-63
2022/08/30 06:25:36;;;;;;;;;;;;;;;27.04;46.48;99843.06;4463482;32;34518;-62
2022/08/30 06:28:08;;;;;;;;;;;;;;;27.42;46.00;99842.22;4475444;32;33920;-62
2022/08/30 06:30:36;;;;;;;;;;;;;;;27.33;45.32;99843.56;4473370;32;33165;-64
2022/08/30 06:33:03;;;;;;;;;;;;;;;26.86;42.98;99848.44;4468822;32;34160;-64
2022/08/30 06:35:31;;;;;;;;;;;;;;;26.28;43.21;99842.91;4475654;31;35511;-64
2022/08/30 06:38:08;;;;;;;;;;;;;;;25.76;44.90;99838.09;4480615;32;35274;-64
2022/08/30 06:40:35;;;;;;;;;;;;;;;25.62;45.36;99841.03;4480441;31;33185;-64
2022/08/30 06:43:03;;;;;;;;;;;;;;;25.76;44.03;99843.56;4480396;32;33544;-64
2022/08/30 06:45:32;;;;;;;;;;;;;;;25.71;45.28;99851.56;4478779;32;34109;-64
2022/08/30 06:47:59;;;;;;;;;;;;;;;25.79;44.68;99847.78;4477667;32;34063;-64
2022/08/30 06:50:26;;;;;;;;;;;;;;;25.97;44.49;99849.91;4479730;32;33453;-64
2022/08/30 06:52:54;;;;;;;;;;;;;;;26.31;44.11;99845.22;4476103;31;34203;-64
2022/08/30 06:55:23;;;;;;;;;;;;;;;26.14;44.17;99842.94;4476815;32;34710;-64
2022/08/30 06:57:50;;;;;;;;;;;;;;;26.35;44.02;99846.47;4479145;31;33667;-64
2022/08/30 07:00:18;;;;;;;;;;;;;;;26.54;44.46;99858.47;4471846;32;32143;-64
2022/08/30 07:02:45;;;;;;;;;;;;;;;26.82;43.67;99848.03;4483428;32;35390;-64
2022/08/30 07:05:12;;;;;;;;;;;;;;;26.54;42.61;99855.75;4482911;32;35468;-64
2022/08/30 07:07:45;;;;;;;;;;;;;;;26.71;42.57;99857.81;4478993;32;35246;-64
2022/08/30 07:10:13;;;;;;;;;;;;;;;26.42;42.75;99858.25;4484000;32;32578;-65
2022/08/30 07:12:40;;;;;;;;;;;;;;;26.51;43.73;99864.41;4479499;32;34091;-62
2022/08/30 07:15:08;;;;;;;;;;;;;;;26.65;42.72;99863.31;4482072;32;34220;-62
2022/08/30 07:20:22;;;;;;;;;;;;;;;26.35;42.88;99863.78;4480175;32;34205;-62
2022/08/30 07:22:49;;;;;;;;;;;;;;;26.54;42.70;99874.94;4479546;31;33071;-62
2022/08/30 07:25:17;;;;;;;;;;;;;;;26.69;42.28;99867.31;4481406;32;34204;-62
2022/08/30 07:27:46;;;;;;;;;;;;;;;26.45;42.10;99866.06;4482293;32;33947;-64
2022/08/30 07:30:13;;;;;;;;;;;;;;;26.41;42.39;99873.88;4484090;32;33229;-64
2022/08/30 07:32:41;;;;;;;;;;;;;;;26.57;42.89;99874.53;4481460;32;34215;-64
2022/08/30 07:35:08;;;;;;;;;;;;;;;26.62;41.73;99875.56;4467849;32;33844;-65
2022/08/30 07:37:36;;;;;;;;;;;;;;;26.88;42.41;99873.78;4484876;32;34329;-64
2022/08/30 07:40:03;;;;;;;;;;;;;;;27.04;41.48;99867.78;4484617;32;34383;-62
2022/08/30 07:42:31;;;;;;;;;;;;;;;26.94;41.18;99878.41;4483897;32;33643;-62
2022/08/30 07:44:58;;;;;;;;;;;;;;;26.86;41.24;99876.72;4481739;32;34337;-64
2022/08/30 07:47:25;;;;;;;;;;;;;;;26.83;41.49;99874.41;4482766;32;32866;-62
2022/08/30 07:49:53;;;;;;;;;;;;;;;26.86;41.67;99884.13;4484553;32;34384;-62
2022/08/30 07:52:20;;;;;;;;;;;;;;;27.09;41.15;99872.59;4482512;32;34521;-63
2022/08/30 07:54:47;;;;;;;;;;;;;;;27.24;41.17;99875.09;4481641;32;32037;-62
2022/08/30 07:57:19;;;;;;;;;;;;;;;27.26;40.35;99873.00;4480037;31;35132;-62
2022/08/30 07:59:46;;;;;;;;;;;;;;;26.97;41.10;99879.84;4476512;32;33267;-64
2022/08/30 08:02:14;;;;;;;;;;;;;;;27.08;40.93;99873.69;4474564;32;32905;-62
2022/08/30 08:04:42;;;;;;;;;;;;;;;27.12;41.48;99873.00;4469335;32;34329;-62
2022/08/30 08:07:10;;;;;;;;;;;;;;;27.56;40.36;99876.78;4481416;32;33869;-62
2022/08/30 08:09:37;;;;;;;;;;;;;;;27.69;40.58;99875.00;4480511;32;32443;-62
2022/08/30 08:12:05;;;;;;;;;;;;;;;27.91;40.95;99879.09;4473549;32;32265;-63
2022/08/30 08:14:33;;;;;;;;;;;;;;;28.22;39.52;99872.69;4476876;32;35505;-62
2022/08/30 08:17:00;;;;;;;;;;;;;;;28.20;39.71;99876.72;4480884;32;35190;-62
2022/08/30 08:19:28;;;;;;;;;;;;;;;28.14;38.13;99872.97;4479104;32;32016;-62
2022/08/30 08:21:58;;;;;;;;;;;;;;;28.04;38.38;99876.22;4481168;32;34816;-62
2022/08/30 08:24:46;;;;;;;;;;;;;;;28.03;38.85;99882.81;4480365;32;34362;-63
2022/08/30 08:27:13;;;;;;;;;;;;;;;28.29;39.32;99875.38;4478530;32;35767;-62
2022/08/30 08:29:41;;;;;;;;;;;;;;;28.48;38.44;99873.50;4475266;32;34005;-62
2022/08/30 08:32:11;;;;;;;;;;;;;;;28.45;38.56;99871.22;4479962;32;33642;-64
2022/08/30 08:34:38;;;;;;;;;;;;;;;28.55;37.99;99875.09;4483105;32;33911;-62
2022/08/30 08:37:06;;;;;;;;;;;;;;;28.51;37.94;99878.56;4481871;32;32829;-62
2022/08/30 08:39:33;;;;;;;;;;;;;;;28.63;37.40;99876.69;4476735;32;31937;-63
2022/08/30 08:42:20;;;;;;;;;;;;;;;28.70;37.53;99879.37;4481342;32;33963;-62
2022/08/30 08:45:08;;;;;;;;;;;;;;;28.71;37.17;99872.81;4479450;32;34229;-62
2022/08/30 08:47:43;;;;;;;;;;;;;;;28.56;38.76;99871.28;4476123;32;33906;-62
2022/08/30 08:50:12;;;;;;;;;;;;;;;28.78;37.34;99871.66;4482080;32;34346;-63
2022/08/30 08:55:34;;;;;;;;;;;;;;;28.98;37.06;99873.31;4481676;32;35068;-62
2022/08/30 08:58:01;;;;;;;;;;;;;;;28.96;38.05;99859.78;4479356;32;34921;-62
2022/08/30 09:00:29;;;;;;;;;;;;;;;29.00;36.99;99872.03;4480116;32;31855;-62
2022/08/30 09:02:59;;;;;;;;;;;;;;;29.06;35.59;99873.03;4471039;32;32736;-62
2022/08/30 09:05:27;;;;;;;;;;;;;;;28.80;35.86;99865.94;4480565;32;32488;-62
2022/08/30 09:08:05;;;;;;;;;;;;;;;28.42;36.43;99869.75;4476794;32;32525;-62
2022/08/30 09:10:39;;;;;;;;;;;;;;;28.41;37.11;99861.69;4472390;32;31846;-63
2022/08/30 09:13:17;;;;;;;;;;;;;;;28.87;37.12;99863.91;4482836;32;34902;-63
2022/08/30 09:15:50;;;;;;;;;;;;;;;28.95;36.08;99860.00;4480020;32;34132;-62
2022/08/30 09:18:41;;;;;;;;;;;;;;;28.93;36.88;99860.25;4468721;32;32727;-62
2022/08/30 09:21:13;;;;;;;;;;;;;;;28.89;36.33;99856.28;4474586;32;33983;-62
2022/08/30 09:23:50;;;;;;;;;;;;;;;29.30;35.34;99851.06;4478770;32;33887;-62
2022/08/30 09:26:29;;;;;;;;;;;;;;;28.10;37.87;99850.56;4471524;32;34407;-62
2022/08/30 09:28:58;;;;;;;;;;;;;;;29.03;35.62;99851.47;4483096;32;34145;-62
2022/08/30 09:31:30;;;;;;;;;;;;;;;28.34;37.22;99843.31;4474231;32;33378;-63
2022/08/30 09:34:18;;;;;;;;;;;;;;;28.86;37.30;99845.72;4479269;32;34822;-63
2022/08/30 09:36:48;;;;;;;;;;;;;;;28.64;37.32;99844.53;4482280;32;34590;-62
2022/08/30 09:39:26;;;;;;;;;;;;;;;28.44;37.39;99848.31;4481730;32;33388;-63
2022/08/30 09:41:54;;;;;;;;;;;;;;;28.84;36.83;99838.75;4476146;32;33090;-63
2022/08/30 09:44:22;;;;;;;;;;;;;;;28.90;37.38;99843.34;4482570;32;34737;-63
2022/08/30 09:46:51;;;;;;;;;;;;;;;29.15;36.53;99837.72;4482488;32;33341;-63
2022/08/30 09:49:38;;;;;;;;;;;;;;;29.07;36.81;99830.63;4478548;32;33073;-63
2022/08/30 09:52:12;;;;;;;;;;;;;;;29.01;37.10;99828.78;4481203;32;32031;-63
2022/08/30 09:54:59;;;;;;;;;;;;;;;28.82;37.93;99833.47;4482674;32;35104;-63
2022/08/30 09:57:30;;;;;;;;;;;;;;;29.02;36.42;99828.56;4461050;32;33908;-63
2022/08/30 10:00:20;;;;;;;;;;;;;;;29.47;36.30;99825.34;4471272;32;34124;-63
2022/08/30 10:02:53;;;;;;;;;;;;;;;29.70;36.39;99826.50;4475242;32;34577;-63
2022/08/30 10:05:23;;;;;;;;;;;;;;;30.02;35.40;99817.91;4483351;32;34434;-65
2022/08/30 10:08:01;;;;;;;;;;;;;;;29.30;35.86;99818.00;4477483;32;34299;-63
2022/08/30 10:10:47;;;;;;;;;;;;;;;29.62;36.53;99821.31;4477451;32;34372;-63
2022/08/30 10:13:17;;;;;;;;;;;;;;;29.64;35.99;99816.44;4472183;32;32229;-63
2022/08/30 10:15:57;;;;;;;;;;;;;;;29.89;35.69;99813.47;4479338;32;36409;-63
2022/08/30 10:18:39;;;;;;;;;;;;;;;29.97;35.54;99818.59;4477413;32;34426;-63
2022/08/30 10:21:10;;;;;;;;;;;;;;;29.71;35.13;99812.47;4469846;32;34323;-63
2022/08/30 10:24:00;;;;;;;;;;;;;;;30.10;35.40;99812.00;4480235;32;33288;-63
2022/08/30 10:26:34;;;;;;;;;;;;;;;30.14;35.77;99819.56;4482059;32;34366;-62
2022/08/30 10:29:05;;;;;;;;;;;;;;;30.08;36.93;99805.88;4482189;32;34020;-63
2022/08/30 10:31:52;;;;;;;;;;;;;;;30.44;35.44;99804.78;4476748;32;34743;-63
2022/08/30 10:34:21;;;;;;;;;;;;;;;30.66;34.76;99801.34;4468816;32;33838;-63
2022/08/30 10:36:52;;;;;;;;;;;;;;;30.67;35.10;99798.34;4469515;32;34589;-63
2022/08/30 10:39:23;;;;;;;;;;;;;;;30.90;34.74;99794.69;4476526;32;34484;-65
2022/08/30 10:41:57;;;;;;;;;;;;;;;30.99;34.73;99800.66;4469693;32;35008;-64
2022/08/30 10:44:26;;;;;;;;;;;;;;;30.46;34.87;99801.75;4462152;32;32015;-63
2022/08/30 10:46:54;;;;;;;;;;;;;;;30.67;34.95;99798.34;4485633;32;35057;-63
2022/08/30 10:49:22;;;;;;;;;;;;;;;30.67;34.53;99792.81;4482653;32;34025;-63
2022/08/30 10:51:51;;;;;;;;;;;;;;;30.76;34.78;99785.84;4479115;32;32799;-63
2022/08/30 10:54:30;;;;;;;;;;;;;;;30.98;34.22;99793.44;4485003;32;33982;-63
2022/08/30 10:56:57;;;;;;;;;;;;;;;31.34;33.79;99788.63;4479524;32;32872;-63
2022/08/30 10:59:24;;;;;;;;;;;;;;;31.72;32.66;99776.81;4483529;32;33244;-63
2022/08/30 11:02:11;;;;;;;;;;;;;;;31.87;33.03;99774.25;4467392;32;32415;-63
2022/08/30 11:04:51;;;;;;;;;;;;;;;31.76;32.26;99770.50;4478477;32;33403;-64
2022/08/30 11:07:21;;;;;;;;;;;;;;;31.28;33.71;99776.59;4482513;32;32777;-65
2022/08/30 11:09:51;;;;;;;;;;;;;;;31.81;32.81;99769.72;4479074;32;35753;-63
2022/08/30 11:12:21;;;;;;;;;;;;;;;32.18;32.42;99769.19;4481642;32;32474;-62
2022/08/30 11:14:50;;;;;;;;;;;;;;;32.43;32.12;99768.72;4480895;32;33340;-62
2022/08/30 11:17:25;;;;;;;;;;;;;;;32.18;32.25;99766.44;4484002;32;34213;-63
2022/08/30 11:19:53;;;;;;;;;;;;;;;32.18;31.68;99760.88;4477475;32;34059;-63
2022/08/30 11:22:27;;;;;;;;;;;;;;;31.75;32.94;99763.31;4460761;32;32587;-63
2022/08/30 11:24:57;;;;;;;;;;;;;;;31.95;32.08;99757.25;4482967;32;32917;-63
2022/08/30 11:27:37;;;;;;;;;;;;;;;32.06;32.05;99757.37;4469845;32;34881;-63
2022/08/30 11:30:23;;;;;;;;;;;;;;;31.58;33.57;99748.63;4477243;32;34542;-63
2022/08/30 11:32:56;;;;;;;;;;;;;;;32.23;31.62;99745.19;4469492;32;32629;-63
2022/08/30 11:35:54;;;;;;;;;;;;;;;32.55;31.17;99747.25;4477467;32;34216;-63
2022/08/30 11:38:24;;;;;;;;;;;;;;;32.68;30.91;99741.31;4471753;31;33897;-63
2022/08/30 11:40:55;;;;;;;;;;;;;;;31.91;31.53;99741.41;4473095;32;34576;-63
2022/08/30 11:43:38;;;;;;;;;;;;;;;32.42;31.61;99739.31;4484659;32;34150;-63
2022/08/30 11:46:24;;;;;;;;;;;;;;;31.90;31.60;99743.34;4479612;32;34447;-65
2022/08/30 11:48:59;;;;;;;;;;;;;;;31.84;32.61;99736.00;4483543;32;34129;-63
2022/08/30 11:51:26;;;;;;;;;;;;;;;31.72;32.63;99729.78;4470882;32;32787;-63
2022/08/30 11:54:01;;;;;;;;;;;;;;;32.13;31.74;99730.34;4479800;32;33562;-63
2022/08/30 11:56:34;;;;;;;;;;;;;;;32.16;31.52;99724.31;4470611;32;32085;-62
2022/08/30 11:59:20;;;;;;;;;;;;;;;32.17;31.46;99714.94;4470019;32;34161;-63
2022/08/30 12:01:48;;;;;;;;;;;;;;;32.35;30.97;99722.88;4474858;32;34361;-63
2022/08/30 12:04:18;;;;;;;;;;;;;;;31.67;32.84;99718.63;4477151;32;34303;-62
2022/08/30 12:06:51;;;;;;;;;;;;;;;31.86;31.60;99710.87;4468907;32;32882;-63
2022/08/30 12:09:22;;;;;;;;;;;;;;;30.78;32.46;99717.38;4480530;32;33850;-63
2022/08/30 12:12:08;;;;;;;;;;;;;;;31.67;31.66;99711.16;4475183;32;33379;-63
2022/08/30 12:14:47;;;;;;;;;;;;;;;31.79;31.01;99709.13;4476570;32;35326;-63
2022/08/30 12:20:04;;;;;;;;;;;;;;;31.93;32.27;99704.06;4468670;32;32698;-63
2022/08/30 12:22:36;;;;;;;;;;;;;;;31.93;32.48;99695.78;4481006;32;33001;-63
2022/08/30 12:25:12;;;;;;;;;;;;;;;32.09;31.09;99694.03;4480150;32;32482;-63
2022/08/30 12:27:39;;;;;;;;;;;;;;;32.33;30.88;99688.22;4459059;32;33294;-63
2022/08/30 12:30:07;;;;;;;;;;;;;;;32.59;31.34;99681.09;4481413;32;32546;-63
2022/08/30 12:32:46;;;;;;;;;;;;;;;32.35;32.06;99681.34;4471031;32;33172;-63
2022/08/30 12:35:22;;;;;;;;;;;;;;;32.31;32.10;99682.13;4480989;32;32896;-63
2022/08/30 12:37:59;;;;;;;;;;;;;;;32.28;31.76;99675.16;4468241;32;32607;-63
2022/08/30 12:40:29;;;;;;;;;;;;;;;32.53;31.71;99674.66;4482963;32;34144;-63
2022/08/30 12:43:03;;;;;;;;;;;;;;;32.55;30.62;99666.91;4472098;32;34806;-62
2022/08/30 12:45:32;;;;;;;;;;;;;;;32.03;31.46;99667.38;4482613;32;34334;-62
2022/08/30 12:48:01;;;;;;;;;;;;;;;32.57;30.84;99663.88;4480115;32;33498;-63
2022/08/30 12:50:32;;;;;;;;;;;;;;;32.19;29.96;99654.56;4482143;32;32630;-63
2022/08/30 12:53:07;;;;;;;;;;;;;;;32.46;29.58;99655.47;4477725;32;33287;-63
2022/08/30 12:56:09;;;;;;;;;;;;;;;32.37;29.87;99653.41;4472502;32;34352;-63
2022/08/30 12:58:45;;;;;;;;;;;;;;;32.22;29.92;99648.50;4463163;32;33111;-63
2022/08/30 13:01:27;;;;;;;;;;;;;;;32.01;30.31;99647.44;4470223;32;34130;-63
2022/08/30 13:03:56;;;;;;;;;;;;;;;32.16;30.07;99647.62;4480771;32;33804;-62
2022/08/30 13:06:35;;;;;;;;;;;;;;;32.10;30.73;99645.88;4471500;32;33433;-62
2022/08/30 13:09:03;;;;;;;;;;;;;;;32.00;30.73;99638.28;4479244;32;34578;-62
2022/08/30 13:11:30;;;;;;;;;;;;;;;31.74;31.70;99634.31;4479910;31;35258;-63
2022/08/30 13:14:17;;;;;;;;;;;;;;;31.88;31.80;99636.72;4481987;32;35822;-63